createdAt,value
2019-05-13T00:00:34.309Z,77.40
2019-05-13T00:01:35.374Z,77.40
2019-05-13T00:02:34.541Z,77.19
2019-05-13T00:03:35.397Z,77.29
2019-05-13T00:04:34.251Z,77.81
2019-05-13T00:05:34.376Z,77.29
2019-05-13T00:06:48.952Z,77.09
2019-05-13T00:07:35.738Z,77.29
2019-05-13T00:08:34.945Z,77.19
2019-05-13T00:09:35.099Z,77.12
2019-05-13T00:10:35.255Z,77.23
2019-05-13T00:11:35.402Z,77.54
2019-05-13T00:12:35.917Z,77.71
2019-05-13T00:13:35.658Z,78.16
2019-05-13T00:14:36.401Z,79.10
2019-05-13T00:15:36.029Z,78.27
2019-05-13T00:16:36.179Z,78.68
2019-05-13T00:17:36.410Z,78.99
2019-05-13T00:18:36.530Z,79.13
2019-05-13T00:19:36.673Z,79.13
2019-05-13T00:20:37.387Z,78.72
2019-05-13T00:21:36.976Z,78.92
2019-05-13T00:22:37.401Z,79.44
2019-05-13T00:23:37.284Z,79.48
2019-05-13T00:24:38.394Z,79.65
2019-05-13T00:25:37.622Z,80.73
2019-05-13T00:26:37.735Z,80.47
2019-05-13T00:27:38.406Z,80.93
2019-05-13T00:28:38.177Z,80.27
2019-05-13T00:29:38.298Z,80.31
2019-05-13T00:30:38.541Z,81.24
2019-05-13T00:31:38.900Z,80.93
2019-05-13T00:32:39.893Z,80.31
2019-05-13T00:33:39.131Z,81.45
2019-05-13T00:34:39.269Z,81.04
2019-05-13T00:35:39.893Z,80.41
2019-05-13T00:36:39.637Z,81.35
2019-05-13T00:37:39.772Z,81.45
2019-05-13T00:38:40.888Z,81.24
2019-05-13T00:39:40.258Z,81.38
2019-05-13T00:40:40.398Z,81.49
2019-05-13T00:41:40.558Z,81.28
2019-05-13T00:42:40.669Z,81.28
2019-05-13T00:43:44.468Z,81.28
2019-05-13T00:44:44.366Z,81.52
2019-05-13T00:45:44.183Z,81.63
2019-05-13T00:46:44.117Z,81.11
2019-05-13T00:47:43.666Z,81.28
2019-05-13T00:48:43.914Z,82.25
2019-05-13T00:49:43.775Z,81.70
2019-05-13T00:50:44.257Z,81.11
2019-05-13T00:51:44.507Z,81.84
2019-05-13T00:52:45.035Z,81.84
2019-05-13T00:53:44.201Z,81.84
2019-05-13T00:54:44.225Z,81.38
2019-05-13T00:56:16.546Z,81.42
2019-05-13T00:56:43.680Z,82.25
2019-05-13T00:57:44.509Z,81.94
2019-05-13T00:58:43.933Z,81.73
2019-05-13T00:59:44.920Z,81.84
2019-05-13T01:00:44.451Z,81.28
2019-05-13T01:01:45.342Z,81.49
2019-05-13T01:02:44.875Z,81.18
2019-05-13T01:03:46.427Z,81.52
2019-05-13T01:04:45.908Z,81.73
2019-05-13T01:05:45.149Z,81.84
2019-05-13T01:06:45.909Z,81.84
2019-05-13T01:07:45.917Z,82.29
2019-05-13T01:08:46.409Z,82.56
2019-05-13T01:09:46.422Z,82.50
2019-05-13T01:10:45.927Z,81.94
2019-05-13T01:11:45.983Z,82.91
2019-05-13T01:12:46.140Z,82.29
2019-05-13T01:13:46.317Z,82.39
2019-05-13T01:14:47.428Z,82.70
2019-05-13T01:15:46.690Z,82.81
2019-05-13T01:16:46.877Z,83.16
2019-05-13T01:17:47.073Z,83.37
2019-05-13T01:18:47.933Z,83.05
2019-05-13T01:19:47.931Z,83.26
2019-05-13T01:20:47.585Z,83.58
2019-05-13T01:21:47.734Z,83.26
2019-05-13T01:22:48.427Z,83.99
2019-05-13T01:24:21.467Z,83.99
2019-05-13T01:24:48.954Z,84.30
2019-05-13T01:25:48.319Z,83.99
2019-05-13T01:26:48.438Z,83.89
2019-05-13T01:27:48.578Z,83.68
2019-05-13T01:28:48.967Z,83.89
2019-05-13T01:29:48.848Z,84.09
2019-05-13T01:30:49.105Z,84.20
2019-05-13T01:31:49.253Z,84.20
2019-05-13T01:32:49.440Z,84.09
2019-05-13T01:33:49.616Z,83.53
2019-05-13T01:34:49.744Z,83.47
2019-05-13T01:35:50.458Z,82.91
2019-05-13T01:36:50.068Z,83.43
2019-05-13T01:37:50.465Z,83.53
2019-05-13T01:38:50.520Z,83.74
2019-05-13T01:39:50.645Z,82.60
2019-05-13T01:40:50.966Z,82.32
2019-05-13T01:41:51.096Z,82.84
2019-05-13T01:42:54.035Z,82.29
2019-05-13T01:43:51.472Z,82.39
2019-05-13T01:44:53.398Z,82.70
2019-05-13T01:45:53.702Z,83.78
2019-05-13T01:46:53.802Z,83.16
2019-05-13T01:47:54.508Z,82.32
2019-05-13T01:48:54.367Z,82.74
2019-05-13T01:49:54.298Z,83.78
2019-05-13T01:50:53.957Z,83.26
2019-05-13T01:52:26.331Z,83.47
2019-05-13T01:52:53.394Z,83.58
2019-05-13T01:53:54.250Z,83.26
2019-05-13T01:54:54.433Z,83.40
2019-05-13T01:55:54.987Z,83.47
2019-05-13T01:56:53.943Z,83.26
2019-05-13T01:57:54.190Z,83.61
2019-05-13T01:58:54.319Z,83.20
2019-05-13T01:59:54.489Z,83.40
2019-05-13T02:00:55.198Z,83.30
2019-05-13T02:01:55.758Z,83.72
2019-05-13T02:02:54.855Z,84.03
2019-05-13T02:03:55.989Z,84.13
2019-05-13T02:04:55.488Z,83.61
2019-05-13T02:05:56.005Z,83.40
2019-05-13T02:06:55.613Z,83.13
2019-05-13T02:08:00.454Z,83.34
2019-05-13T02:08:57.977Z,83.65
2019-05-13T02:09:56.199Z,83.13
2019-05-13T02:10:56.993Z,83.23
2019-05-13T02:11:56.492Z,83.86
2019-05-13T02:12:56.617Z,83.54
2019-05-13T02:13:56.755Z,83.23
2019-05-13T02:14:56.924Z,83.23
2019-05-13T02:15:57.041Z,83.54
2019-05-13T02:16:57.173Z,83.44
2019-05-13T02:17:57.308Z,83.65
2019-05-13T02:18:57.405Z,83.75
2019-05-13T02:19:58.659Z,83.34
2019-05-13T02:21:33.437Z,83.65
2019-05-13T02:21:58.011Z,83.80
2019-05-13T02:22:58.276Z,84.38
2019-05-13T02:23:58.407Z,83.54
2019-05-13T02:24:58.520Z,83.90
2019-05-13T02:25:58.763Z,84.11
2019-05-13T02:26:58.891Z,83.90
2019-05-13T02:27:59.519Z,84.48
2019-05-13T02:28:59.132Z,84.83
2019-05-13T02:30:00.023Z,84.17
2019-05-13T02:30:59.513Z,84.52
2019-05-13T02:32:02.759Z,83.86
2019-05-13T02:33:02.771Z,84.06
2019-05-13T02:34:02.481Z,84.06
2019-05-13T02:35:02.911Z,84.42
2019-05-13T02:36:02.992Z,84.06
2019-05-13T02:37:03.278Z,83.86
2019-05-13T02:38:18.509Z,83.86
2019-05-13T02:39:03.014Z,83.80
2019-05-13T02:40:03.470Z,84.42
2019-05-13T02:41:03.070Z,84.00
2019-05-13T02:42:03.777Z,84.83
2019-05-13T02:43:03.098Z,84.94
2019-05-13T02:44:03.981Z,84.83
2019-05-13T02:45:03.663Z,84.83
2019-05-13T02:46:04.611Z,85.04
2019-05-13T02:47:04.082Z,85.14
2019-05-13T02:48:03.567Z,84.73
2019-05-13T02:49:36.387Z,85.25
2019-05-13T02:50:05.172Z,84.94
2019-05-13T02:51:04.353Z,84.94
2019-05-13T02:52:04.027Z,84.38
2019-05-13T02:53:03.554Z,85.11
2019-05-13T02:54:03.819Z,84.83
2019-05-13T02:55:04.537Z,84.69
2019-05-13T02:56:04.031Z,84.27
2019-05-13T02:57:04.333Z,84.27
2019-05-13T02:58:04.352Z,83.54
2019-05-13T02:59:04.471Z,84.06
2019-05-13T03:00:04.629Z,83.96
2019-05-13T03:01:05.524Z,83.34
2019-05-13T03:02:05.024Z,84.17
2019-05-13T03:03:05.237Z,84.00
2019-05-13T03:04:06.370Z,84.11
2019-05-13T03:05:06.535Z,83.80
2019-05-13T03:06:05.776Z,85.04
2019-05-13T03:07:05.918Z,85.25
2019-05-13T03:08:06.585Z,85.67
2019-05-13T03:09:06.176Z,85.60
2019-05-13T03:10:06.309Z,86.08
2019-05-13T03:11:07.066Z,85.35
2019-05-13T03:12:07.543Z,85.14
2019-05-13T03:13:06.961Z,85.19
2019-05-13T03:14:07.116Z,85.29
2019-05-13T03:15:07.297Z,85.19
2019-05-13T03:16:07.460Z,85.08
2019-05-13T03:17:43.243Z,85.50
2019-05-13T03:18:07.754Z,86.75
2019-05-13T03:19:07.883Z,86.75
2019-05-13T03:20:11.923Z,86.33
2019-05-13T03:21:12.437Z,86.43
2019-05-13T03:22:08.277Z,86.65
2019-05-13T03:23:08.406Z,86.12
2019-05-13T03:24:08.556Z,85.33
2019-05-13T03:25:08.719Z,85.43
2019-05-13T03:26:08.858Z,86.47
2019-05-13T03:27:12.712Z,85.60
2019-05-13T03:28:09.216Z,85.64
2019-05-13T03:29:09.356Z,85.74
2019-05-13T03:30:15.729Z,85.39
2019-05-13T03:31:15.909Z,85.02
2019-05-13T03:32:16.653Z,85.53
2019-05-13T03:33:18.586Z,85.12
2019-05-13T03:34:15.489Z,85.08
2019-05-13T03:35:16.288Z,85.96
2019-05-13T03:36:16.693Z,86.54
2019-05-13T03:37:15.459Z,85.60
2019-05-13T03:38:12.924Z,84.73
2019-05-13T03:39:16.097Z,85.04
2019-05-13T03:40:13.341Z,85.14
2019-05-13T03:41:13.072Z,85.56
2019-05-13T03:42:12.567Z,85.25
2019-05-13T03:43:12.992Z,85.35
2019-05-13T03:44:13.832Z,85.46
2019-05-13T03:45:13.492Z,85.35
2019-05-13T03:46:12.743Z,85.35
2019-05-13T03:47:13.573Z,85.14
2019-05-13T03:48:13.071Z,85.19
2019-05-13T03:49:14.396Z,86.22
2019-05-13T03:50:14.067Z,86.37
2019-05-13T03:51:13.868Z,86.22
2019-05-13T03:52:13.737Z,86.12
2019-05-13T03:53:13.857Z,85.81
2019-05-13T03:54:13.983Z,86.47
2019-05-13T03:55:14.140Z,86.79
2019-05-13T03:56:14.259Z,86.16
2019-05-13T03:57:14.517Z,86.75
2019-05-13T03:58:14.640Z,86.16
2019-05-13T03:59:14.882Z,86.75
2019-05-13T04:00:15.565Z,86.75
2019-05-13T04:01:15.170Z,86.89
2019-05-13T04:02:15.313Z,87.10
2019-05-13T04:03:15.442Z,86.37
2019-05-13T04:04:15.577Z,86.68
2019-05-13T04:05:15.709Z,86.75
2019-05-13T04:06:16.567Z,86.33
2019-05-13T04:07:16.096Z,85.50
2019-05-13T04:08:17.061Z,85.39
2019-05-13T04:09:26.394Z,86.33
2019-05-13T04:10:18.573Z,86.75
2019-05-13T04:11:16.776Z,86.43
2019-05-13T04:12:16.933Z,86.22
2019-05-13T04:13:17.067Z,86.54
2019-05-13T04:14:52.822Z,86.85
2019-05-13T04:15:17.331Z,86.54
2019-05-13T04:16:17.465Z,86.54
2019-05-13T04:17:17.646Z,86.33
2019-05-13T04:18:18.803Z,86.12
2019-05-13T04:19:17.916Z,86.02
2019-05-13T04:20:18.076Z,86.54
2019-05-13T04:21:19.078Z,86.29
2019-05-13T04:22:18.441Z,86.71
2019-05-13T04:23:18.596Z,86.12
2019-05-13T04:24:18.775Z,84.73
2019-05-13T04:25:18.951Z,85.35
2019-05-13T04:26:23.179Z,86.40
2019-05-13T04:27:19.302Z,85.14
2019-05-13T04:28:22.137Z,85.25
2019-05-13T04:29:19.582Z,85.46
2019-05-13T04:30:22.350Z,85.77
2019-05-13T04:31:22.814Z,85.83
2019-05-13T04:32:22.942Z,85.52
2019-05-13T04:33:22.949Z,85.21
2019-05-13T04:34:22.893Z,85.00
2019-05-13T04:35:23.219Z,85.31
2019-05-13T04:36:23.421Z,85.17
2019-05-13T04:37:22.477Z,85.28
2019-05-13T04:38:22.957Z,84.55
2019-05-13T04:39:40.409Z,84.75
2019-05-13T04:40:23.609Z,84.65
2019-05-13T04:41:23.234Z,85.17
2019-05-13T04:42:23.308Z,85.24
2019-05-13T04:43:23.785Z,85.55
2019-05-13T04:44:24.115Z,85.24
2019-05-13T04:45:24.279Z,84.27
2019-05-13T04:46:23.777Z,84.68
2019-05-13T04:47:43.886Z,83.74
2019-05-13T04:48:25.092Z,83.50
2019-05-13T04:49:23.659Z,83.29
2019-05-13T04:50:23.605Z,82.94
2019-05-13T04:51:23.621Z,82.35
2019-05-13T04:52:23.741Z,82.53
2019-05-13T04:53:24.589Z,81.45
2019-05-13T04:54:24.602Z,80.73
2019-05-13T04:55:24.253Z,80.37
2019-05-13T04:56:25.092Z,81.20
2019-05-13T04:57:25.096Z,80.52
2019-05-13T04:58:25.597Z,81.16
2019-05-13T04:59:25.604Z,80.47
2019-05-13T05:00:25.166Z,81.16
2019-05-13T05:01:25.376Z,79.71
2019-05-13T05:02:36.618Z,78.68
2019-05-13T05:03:32.972Z,79.10
2019-05-13T05:04:30.912Z,79.78
2019-05-13T05:05:28.219Z,80.61
2019-05-13T05:06:26.326Z,78.85
2019-05-13T05:07:26.485Z,78.71
2019-05-13T05:08:27.625Z,78.05
2019-05-13T05:09:26.885Z,78.26
2019-05-13T05:11:02.472Z,77.81
2019-05-13T05:11:27.230Z,77.19
2019-05-13T05:12:27.400Z,77.29
2019-05-13T05:13:27.537Z,76.05
2019-05-13T05:14:28.628Z,76.22
2019-05-13T05:15:28.628Z,76.22
2019-05-13T05:16:29.143Z,75.50
2019-05-13T05:17:28.651Z,75.95
2019-05-13T05:18:28.415Z,75.60
2019-05-13T05:19:31.889Z,77.22
2019-05-13T05:20:32.106Z,75.60
2019-05-13T05:21:28.876Z,75.36
2019-05-13T05:22:31.404Z,76.09
2019-05-13T05:23:29.202Z,75.78
2019-05-13T05:24:32.355Z,75.36
2019-05-13T05:25:29.491Z,76.18
2019-05-13T05:26:31.370Z,76.50
2019-05-13T05:27:31.662Z,76.87
2019-05-13T05:28:31.991Z,75.22
2019-05-13T05:29:32.253Z,74.53
2019-05-13T05:30:32.293Z,74.67
2019-05-13T05:31:32.656Z,74.50
2019-05-13T05:32:32.378Z,74.46
2019-05-13T05:33:32.024Z,74.29
2019-05-13T05:34:32.332Z,74.26
2019-05-13T05:35:33.125Z,73.71
2019-05-13T05:36:32.202Z,73.81
2019-05-13T05:37:33.639Z,73.16
2019-05-13T05:38:32.148Z,73.05
2019-05-13T05:39:32.040Z,72.44
2019-05-13T05:40:34.782Z,72.54
2019-05-13T05:41:32.352Z,72.54
2019-05-13T05:42:33.126Z,72.02
2019-05-13T05:43:33.123Z,72.19
2019-05-13T05:44:32.889Z,71.47
2019-05-13T05:45:32.906Z,71.55
2019-05-13T05:46:33.039Z,69.35
2019-05-13T05:47:34.124Z,70.79
2019-05-13T05:48:33.462Z,69.45
2019-05-13T05:49:33.683Z,69.31
2019-05-13T05:50:33.796Z,68.29
2019-05-13T05:51:34.048Z,68.70
2019-05-13T05:52:34.194Z,69.17
2019-05-13T05:53:34.300Z,71.89
2019-05-13T05:54:34.544Z,71.23
2019-05-13T05:55:34.643Z,72.61
2019-05-13T05:56:34.783Z,72.61
2019-05-13T05:57:35.046Z,71.13
2019-05-13T05:58:35.173Z,72.27
2019-05-13T05:59:35.341Z,71.23
2019-05-13T06:00:35.429Z,70.48
2019-05-13T06:01:37.421Z,70.96
2019-05-13T06:02:37.632Z,69.73
2019-05-13T06:03:36.624Z,69.55
2019-05-13T06:04:37.171Z,70.45
2019-05-13T06:05:36.380Z,69.65
2019-05-13T06:06:36.491Z,70.31
2019-05-13T06:07:36.730Z,71.55
2019-05-13T06:08:36.969Z,72.37
2019-05-13T06:09:37.151Z,72.37
2019-05-13T06:10:47.272Z,71.64
2019-05-13T06:11:41.611Z,72.58
2019-05-13T06:12:37.646Z,72.47
2019-05-13T06:13:37.868Z,72.47
2019-05-13T06:14:38.128Z,71.85
2019-05-13T06:15:38.638Z,72.88
2019-05-13T06:16:38.358Z,72.58
2019-05-13T06:17:38.610Z,72.40
2019-05-13T06:18:38.732Z,71.95
2019-05-13T06:19:39.008Z,72.67
2019-05-13T06:20:39.141Z,72.67
2019-05-13T06:21:42.053Z,72.13
2019-05-13T06:22:39.446Z,71.82
2019-05-13T06:23:41.787Z,71.44
2019-05-13T06:24:42.085Z,72.99
2019-05-13T06:25:42.826Z,73.12
2019-05-13T06:26:42.062Z,73.22
2019-05-13T06:27:42.206Z,73.95
2019-05-13T06:28:41.621Z,73.88
2019-05-13T06:29:42.401Z,74.57
2019-05-13T06:30:42.158Z,73.43
2019-05-13T06:31:42.147Z,74.05
2019-05-13T06:32:41.883Z,74.60
2019-05-13T06:33:42.621Z,73.98
2019-05-13T06:34:41.767Z,74.19
2019-05-13T06:35:44.745Z,74.60
2019-05-13T06:36:43.075Z,74.50
2019-05-13T06:37:42.364Z,73.98
2019-05-13T06:39:04.031Z,74.40
2019-05-13T06:39:42.731Z,74.19
2019-05-13T06:40:43.648Z,74.29
2019-05-13T06:41:44.018Z,74.60
2019-05-13T06:42:43.136Z,74.57
2019-05-13T06:43:43.313Z,74.26
2019-05-13T06:45:16.354Z,74.15
2019-05-13T06:45:43.573Z,73.33
2019-05-13T06:46:43.727Z,73.54
2019-05-13T06:47:44.647Z,73.64
2019-05-13T06:48:44.124Z,74.46
2019-05-13T06:49:44.251Z,73.81
2019-05-13T06:50:44.455Z,72.03
2019-05-13T06:51:44.688Z,73.16
2019-05-13T06:52:44.720Z,72.23
2019-05-13T06:53:44.866Z,72.67
2019-05-13T06:54:45.663Z,72.27
2019-05-13T06:55:45.292Z,72.99
2019-05-13T06:56:45.473Z,72.50
2019-05-13T06:57:45.584Z,73.43
2019-05-13T06:58:46.670Z,73.30
2019-05-13T06:59:45.897Z,72.67
2019-05-13T07:00:46.661Z,72.58
2019-05-13T07:01:46.668Z,72.67
2019-05-13T07:02:46.419Z,72.92
2019-05-13T07:03:47.170Z,73.43
2019-05-13T07:04:46.789Z,72.78
2019-05-13T07:05:46.959Z,73.43
2019-05-13T07:06:47.144Z,73.60
2019-05-13T07:07:47.710Z,72.30
2019-05-13T07:08:47.451Z,71.24
2019-05-13T07:09:47.574Z,70.14
2019-05-13T07:10:47.711Z,67.75
2019-05-13T07:11:47.934Z,67.75
2019-05-13T07:12:48.084Z,66.96
2019-05-13T07:13:48.271Z,66.11
2019-05-13T07:14:51.157Z,65.32
2019-05-13T07:15:48.581Z,66.48
2019-05-13T07:16:48.731Z,68.37
2019-05-13T07:17:51.818Z,68.70
2019-05-13T07:18:49.080Z,67.75
2019-05-13T07:19:51.493Z,66.51
2019-05-13T07:20:49.436Z,66.38
2019-05-13T07:21:51.945Z,66.07
2019-05-13T07:22:53.181Z,67.30
2019-05-13T07:23:54.497Z,66.93
2019-05-13T07:24:51.899Z,67.20
2019-05-13T07:25:52.493Z,65.08
2019-05-13T07:26:52.355Z,65.38
2019-05-13T07:27:51.713Z,66.24
2019-05-13T07:28:52.450Z,67.26
2019-05-13T07:29:55.505Z,66.54
2019-05-13T07:30:51.726Z,66.31
2019-05-13T07:31:53.181Z,65.28
2019-05-13T07:32:52.378Z,65.48
2019-05-13T07:33:52.760Z,65.35
2019-05-13T07:34:53.223Z,63.68
2019-05-13T07:35:58.253Z,62.55
2019-05-13T07:36:54.428Z,62.41
2019-05-13T07:37:53.164Z,61.80
2019-05-13T07:38:53.185Z,63.27
2019-05-13T07:39:53.217Z,64.29
2019-05-13T07:40:54.674Z,63.21
2019-05-13T07:41:53.688Z,61.64
2019-05-13T07:42:53.559Z,60.82
2019-05-13T07:43:54.679Z,60.58
2019-05-13T07:44:54.209Z,61.74
2019-05-13T07:45:54.680Z,60.92
2019-05-13T07:46:54.317Z,61.58
2019-05-13T07:47:54.459Z,60.15
2019-05-13T07:48:55.189Z,59.33
2019-05-13T07:49:54.873Z,58.56
2019-05-13T07:51:00.366Z,56.81
2019-05-13T07:51:58.178Z,55.41
2019-05-13T07:52:55.698Z,52.62
2019-05-13T07:53:56.172Z,54.54
2019-05-13T07:54:56.672Z,55.30
2019-05-13T07:55:56.179Z,56.38
2019-05-13T07:56:57.204Z,57.81
2019-05-13T07:57:56.319Z,59.99
2019-05-13T07:58:56.455Z,57.84
2019-05-13T07:59:56.591Z,58.48
2019-05-13T08:00:56.781Z,59.71
2019-05-13T08:01:56.923Z,60.50
2019-05-13T08:02:57.067Z,58.69
2019-05-13T08:03:57.206Z,58.81
2019-05-13T08:04:57.388Z,59.81
2019-05-13T08:05:57.581Z,58.38
2019-05-13T08:07:01.592Z,58.69
2019-05-13T08:07:58.690Z,58.30
2019-05-13T08:08:58.086Z,58.72
2019-05-13T08:10:00.924Z,59.46
2019-05-13T08:11:01.209Z,59.43
2019-05-13T08:12:06.493Z,60.33
2019-05-13T08:13:02.367Z,59.89
2019-05-13T08:13:58.900Z,59.78
2019-05-13T08:14:59.065Z,59.76
2019-05-13T08:16:01.637Z,60.06
2019-05-13T08:16:59.394Z,58.43
2019-05-13T08:18:33.604Z,59.86
2019-05-13T08:19:01.824Z,58.22
2019-05-13T08:20:02.867Z,57.94
2019-05-13T08:21:01.988Z,57.64
2019-05-13T08:22:02.104Z,56.61
2019-05-13T08:23:02.694Z,57.25
2019-05-13T08:24:02.668Z,59.02
2019-05-13T08:25:03.333Z,59.23
2019-05-13T08:26:02.700Z,57.28
2019-05-13T08:27:02.057Z,58.48
2019-05-13T08:28:02.395Z,57.46
2019-05-13T08:29:04.893Z,58.25
2019-05-13T08:30:02.800Z,56.69
2019-05-13T08:31:02.705Z,56.51
2019-05-13T08:32:03.330Z,56.99
2019-05-13T08:33:03.227Z,56.48
2019-05-13T08:34:02.750Z,52.29
2019-05-13T08:35:08.752Z,49.55
2019-05-13T08:36:05.118Z,49.96
2019-05-13T08:37:03.434Z,51.51
2019-05-13T08:38:03.396Z,51.62
2019-05-13T08:39:03.725Z,52.34
2019-05-13T08:40:03.753Z,48.03
2019-05-13T08:41:03.890Z,49.14
2019-05-13T08:42:15.082Z,48.52
2019-05-13T08:43:07.042Z,47.40
2019-05-13T08:44:05.721Z,44.43
2019-05-13T08:45:04.733Z,44.32
2019-05-13T08:46:04.872Z,44.43
2019-05-13T08:47:04.996Z,44.55
2019-05-13T08:48:05.257Z,44.37
2019-05-13T08:49:06.199Z,45.57
2019-05-13T08:50:06.202Z,46.70
2019-05-13T08:51:05.737Z,47.42
2019-05-13T08:52:05.888Z,47.50
2019-05-13T08:53:06.704Z,46.48
2019-05-13T08:54:06.226Z,47.19
2019-05-13T08:55:06.374Z,44.23
2019-05-13T08:56:06.514Z,43.30
2019-05-13T08:57:07.215Z,42.69
2019-05-13T08:58:06.869Z,44.32
2019-05-13T08:59:06.998Z,44.31
2019-05-13T09:00:07.204Z,41.66
2019-05-13T09:01:07.345Z,43.28
2019-05-13T09:02:08.208Z,44.31
2019-05-13T09:03:07.736Z,44.92
2019-05-13T09:04:08.272Z,46.56
2019-05-13T09:05:07.998Z,46.56
2019-05-13T09:06:08.715Z,47.17
2019-05-13T09:07:08.335Z,49.93
2019-05-13T09:08:08.506Z,49.50
2019-05-13T09:09:11.310Z,47.85
2019-05-13T09:10:08.787Z,47.53
2019-05-13T09:11:08.914Z,47.94
2019-05-13T09:12:11.315Z,49.48
2019-05-13T09:13:09.256Z,49.79
2019-05-13T09:14:11.292Z,48.89
2019-05-13T09:15:11.838Z,44.49
2019-05-13T09:16:13.168Z,39.78
2019-05-13T09:17:12.019Z,41.54
2019-05-13T09:18:11.477Z,43.26
2019-05-13T09:19:15.922Z,42.65
2019-05-13T09:20:12.588Z,45.06
2019-05-13T09:21:11.731Z,44.55
2019-05-13T09:22:12.484Z,44.78
2019-05-13T09:23:11.934Z,44.67
2019-05-13T09:24:23.860Z,47.25
2019-05-13T09:25:13.298Z,45.84
2019-05-13T09:26:13.246Z,45.02
2019-05-13T09:27:12.143Z,45.41
2019-05-13T09:28:12.867Z,44.90
2019-05-13T09:29:12.124Z,45.80
2019-05-13T09:30:12.296Z,47.11
2019-05-13T09:31:12.799Z,46.80
2019-05-13T09:32:13.613Z,45.57
2019-05-13T09:33:12.815Z,46.29
2019-05-13T09:34:13.067Z,46.47
2019-05-13T09:35:13.201Z,40.55
2019-05-13T09:36:13.347Z,41.36
2019-05-13T09:37:13.488Z,42.91
2019-05-13T09:38:13.657Z,41.69
2019-05-13T09:39:13.812Z,42.12
2019-05-13T09:40:13.930Z,42.02
2019-05-13T09:41:15.251Z,43.43
2019-05-13T09:42:14.353Z,41.18
2019-05-13T09:43:14.488Z,41.49
2019-05-13T09:44:14.615Z,41.59
2019-05-13T09:45:15.706Z,42.49
2019-05-13T09:46:14.986Z,41.77
2019-05-13T09:47:15.114Z,42.79
2019-05-13T09:48:16.133Z,37.68
2019-05-13T09:49:19.874Z,37.99
2019-05-13T09:50:28.700Z,37.70
2019-05-13T09:51:17.783Z,39.54
2019-05-13T09:52:16.000Z,41.18
2019-05-13T09:53:16.152Z,43.12
2019-05-13T09:54:17.222Z,44.14
2019-05-13T09:55:26.349Z,44.73
2019-05-13T09:56:18.728Z,43.30
2019-05-13T09:57:17.721Z,43.30
2019-05-13T09:58:16.948Z,40.32
2019-05-13T09:59:17.209Z,37.57
2019-05-13T10:00:17.338Z,37.46
2019-05-13T10:01:17.514Z,37.59
2019-05-13T10:02:17.663Z,39.12
2019-05-13T10:03:17.829Z,42.38
2019-05-13T10:04:18.013Z,41.55
2019-05-13T10:05:18.180Z,45.92
2019-05-13T10:06:21.863Z,41.30
2019-05-13T10:07:18.613Z,41.33
2019-05-13T10:08:21.965Z,41.94
2019-05-13T10:09:18.883Z,41.96
2019-05-13T10:10:19.010Z,41.75
2019-05-13T10:11:21.621Z,41.83
2019-05-13T10:12:23.259Z,41.63
2019-05-13T10:13:19.521Z,42.96
2019-05-13T10:14:19.636Z,42.55
2019-05-13T10:15:22.100Z,43.06
2019-05-13T10:16:22.059Z,43.69
2019-05-13T10:17:22.103Z,44.61
2019-05-13T10:18:22.413Z,44.31
2019-05-13T10:19:21.510Z,44.49
2019-05-13T10:20:21.613Z,43.26
2019-05-13T10:21:21.811Z,42.76
2019-05-13T10:22:22.734Z,42.36
2019-05-13T10:23:22.001Z,42.88
2019-05-13T10:24:22.503Z,43.90
2019-05-13T10:25:22.686Z,42.47
2019-05-13T10:26:22.925Z,43.10
2019-05-13T10:27:22.779Z,44.12
2019-05-13T10:28:22.026Z,44.12
2019-05-13T10:29:22.594Z,43.91
2019-05-13T10:30:23.331Z,42.29
2019-05-13T10:31:22.558Z,43.30
2019-05-13T10:32:23.257Z,42.79
2019-05-13T10:33:22.896Z,43.30
2019-05-13T10:34:23.277Z,44.43
2019-05-13T10:35:23.741Z,44.53
2019-05-13T10:36:23.354Z,43.91
2019-05-13T10:37:24.230Z,44.00
2019-05-13T10:38:27.431Z,45.63
2019-05-13T10:39:25.246Z,43.90
2019-05-13T10:40:24.286Z,43.14
2019-05-13T10:41:24.149Z,41.10
2019-05-13T10:42:25.296Z,41.82
2019-05-13T10:43:31.346Z,41.20
2019-05-13T10:44:27.733Z,41.33
2019-05-13T10:45:25.959Z,41.63
2019-05-13T10:46:25.124Z,41.53
2019-05-13T10:47:26.266Z,41.22
2019-05-13T10:48:25.375Z,40.69
2019-05-13T10:49:25.496Z,41.00
2019-05-13T10:51:01.961Z,39.86
2019-05-13T10:51:26.297Z,41.27
2019-05-13T10:52:25.896Z,41.67
2019-05-13T10:53:26.057Z,41.25
2019-05-13T10:54:26.192Z,43.59
2019-05-13T10:55:27.259Z,42.96
2019-05-13T10:56:26.533Z,41.43
2019-05-13T10:57:27.258Z,41.43
2019-05-13T10:58:27.796Z,41.96
2019-05-13T10:59:27.028Z,41.35
2019-05-13T11:00:27.315Z,41.27
2019-05-13T11:01:27.348Z,40.96
2019-05-13T11:02:28.283Z,41.55
2019-05-13T11:03:27.679Z,39.72
2019-05-13T11:04:27.816Z,40.53
2019-05-13T11:05:27.982Z,39.11
2019-05-13T11:06:28.780Z,40.33
2019-05-13T11:07:28.361Z,38.90
2019-05-13T11:08:28.566Z,39.74
2019-05-13T11:09:28.715Z,41.27
2019-05-13T11:10:28.869Z,41.57
2019-05-13T11:11:32.060Z,41.27
2019-05-13T11:12:29.178Z,43.10
2019-05-13T11:13:48.806Z,40.66
2019-05-13T11:14:32.360Z,40.47
2019-05-13T11:15:35.937Z,38.96
2019-05-13T11:16:30.910Z,40.19
2019-05-13T11:17:32.968Z,38.96
2019-05-13T11:18:31.316Z,38.43
2019-05-13T11:19:36.134Z,39.86
2019-05-13T11:20:32.624Z,39.87
2019-05-13T11:21:32.202Z,40.57
2019-05-13T11:22:32.669Z,39.04
2019-05-13T11:23:32.283Z,39.86
2019-05-13T11:24:33.269Z,39.78
2019-05-13T11:25:32.397Z,39.87
2019-05-13T11:26:36.291Z,40.37
2019-05-13T11:27:32.847Z,40.26
2019-05-13T11:28:32.309Z,39.55
2019-05-13T11:29:32.829Z,40.67
2019-05-13T11:30:32.446Z,41.06
2019-05-13T11:31:33.285Z,40.45
2019-05-13T11:32:32.755Z,39.53
2019-05-13T11:33:33.280Z,39.33
2019-05-13T11:34:33.792Z,40.33
2019-05-13T11:35:33.798Z,42.37
2019-05-13T11:36:33.593Z,41.35
2019-05-13T11:37:33.796Z,40.31
2019-05-13T11:38:34.297Z,41.14
2019-05-13T11:39:34.793Z,38.68
2019-05-13T11:40:34.167Z,40.21
2019-05-13T11:41:34.304Z,41.72
2019-05-13T11:42:34.463Z,38.85
2019-05-13T11:43:34.621Z,40.27
2019-05-13T11:44:35.288Z,39.24
2019-05-13T11:45:35.770Z,41.38
2019-05-13T11:46:35.108Z,40.16
2019-05-13T11:47:36.282Z,37.71
2019-05-13T11:48:35.795Z,40.16
2019-05-13T11:49:35.790Z,36.90
2019-05-13T11:50:36.799Z,36.80
2019-05-13T11:51:36.045Z,37.30
2019-05-13T11:52:36.259Z,37.61
2019-05-13T11:53:37.717Z,36.49
2019-05-13T11:54:37.808Z,36.80
2019-05-13T11:55:36.786Z,37.00
2019-05-13T11:56:36.931Z,36.31
2019-05-13T11:57:37.060Z,36.83
2019-05-13T11:58:38.292Z,36.24
2019-05-13T11:59:37.542Z,35.61
2019-05-13T12:00:37.735Z,35.83
2019-05-13T12:01:37.892Z,37.04
2019-05-13T12:02:38.052Z,36.51
2019-05-13T12:03:38.193Z,37.84
2019-05-13T12:04:43.064Z,35.38
2019-05-13T12:05:38.798Z,36.60
2019-05-13T12:06:47.762Z,37.30
2019-05-13T12:07:40.238Z,36.39
2019-05-13T12:08:39.063Z,36.49
2019-05-13T12:09:39.199Z,36.78
2019-05-13T12:10:43.745Z,34.75
2019-05-13T12:11:39.568Z,36.27
2019-05-13T12:12:43.318Z,35.97
2019-05-13T12:13:42.047Z,35.26
2019-05-13T12:15:04.111Z,36.27
2019-05-13T12:15:46.787Z,37.08
2019-05-13T12:16:42.530Z,36.16
2019-05-13T12:17:43.078Z,35.44
2019-05-13T12:18:43.639Z,34.63
2019-05-13T12:19:42.002Z,34.75
2019-05-13T12:20:42.646Z,34.85
2019-05-13T12:21:46.447Z,35.05
2019-05-13T12:22:42.780Z,33.92
2019-05-13T12:23:42.920Z,33.53
2019-05-13T12:24:42.879Z,32.53
2019-05-13T12:25:43.747Z,34.78
2019-05-13T12:26:43.702Z,32.83
2019-05-13T12:27:43.538Z,34.66
2019-05-13T12:28:42.653Z,34.66
2019-05-13T12:29:43.247Z,34.85
2019-05-13T12:30:43.919Z,32.41
2019-05-13T12:31:43.049Z,31.28
2019-05-13T12:32:43.877Z,32.99
2019-05-13T12:33:45.281Z,30.67
2019-05-13T12:34:45.756Z,32.40
2019-05-13T12:35:44.864Z,30.77
2019-05-13T12:36:44.101Z,30.06
2019-05-13T12:37:44.265Z,30.57
2019-05-13T12:38:44.591Z,30.98
2019-05-13T12:39:44.630Z,31.08
2019-05-13T12:40:44.787Z,29.94
2019-05-13T12:41:45.782Z,29.66
2019-05-13T12:42:47.257Z,29.75
2019-05-13T12:43:46.832Z,30.57
2019-05-13T12:45:00.231Z,32.10
2019-05-13T12:45:45.805Z,30.79
2019-05-13T12:46:50.321Z,31.68
2019-05-13T12:47:47.092Z,33.11
2019-05-13T12:48:46.336Z,32.38
2019-05-13T12:49:47.302Z,30.96
2019-05-13T12:50:47.306Z,30.85
2019-05-13T12:51:46.815Z,32.06
2019-05-13T12:52:46.956Z,30.66
2019-05-13T12:53:47.328Z,31.25
2019-05-13T12:54:47.799Z,31.35